Carterville, Missouri
Current Conditions -  °F | °C
As of 9:53 PM on Thursday 27 Nov 2014 (Local Time) from KJLN Reporting Station
Clear Clear  
Wind Chill: 30°   Ceiling: Unl
Heat Index: 34°   Visibility: 10mi
Dew Point: 20°   Wind: 5mph
Humidity: 56%   Direction: 130°SE
Pressure: 30.34"   Gusts: NA
Location:  37.15°N, 94.44°W
Report Text: KJLN 280353Z AUTO 13004KT 10SM CLR 01/M07 A3034 RMK AO2 SLP281 T00111067
Loading
Personal Weather Stations






























Interactive Weather Map New forecast layout! Learn more

10-Day Weather Forecast

Advertisements
Track Severe Weather on mobile